MSC Marina — HPSB — position and weather

sailwx.info

Track history (hours):
 
Tides and Currents Weather Stations Pressure Air Temp Water Temp Dewpoint Dewpoint Depression Visibility Wind Speed Wind Dir Waves Ship Positions

MSC Marina

Last reported at 2018-Jun-11 09:35 UTC. Time now 2018-Jun-20 02:10 UTC.
Position S 25°18' W 046°52'.
Warning: this ship's position is 8 days out of date.

Length 304 m; draft 8.5 m.

Type: Ship (hazmat cat B). MMSI: 354972000.

Date/timePositionNaut miles runAvg speedWind from/ knotsBaromVisibWave heightAir tempDewpointWater temp
2018-Jun-11 09:35S 25°18' W 046°52'112.4
2018-Jun-11 09:30S 25°17' W 046°51'1012.4
2018-Jun-11 08:43S 25°08' W 046°48'312.4
2018-Jun-11 08:30S 25°05' W 046°47'812.5
2018-Jun-11 07:51S 24°58' W 046°43'1512.4
2018-Jun-11 06:37S 24°43' W 046°38'112.5
2018-Jun-11 06:30S 24°42' W 046°37'612.4
2018-Jun-11 06:00S 24°36' W 046°35'612.5
2018-Jun-11 05:30S 24°30' W 046°32'612.5
2018-Jun-11 05:00S 24°24' W 046°30'612.6
2018-Jun-11 04:30S 24°19' W 046°28'612.5
2018-Jun-11 04:00S 24°13' W 046°25'612.5
2018-Jun-11 03:30S 24°07' W 046°23'612.5
2018-Jun-11 03:00S 24°01' W 046°20'4 0.2
2018-Jun-10 02:23S 23°58' W 046°18'2 5.9
2018-Jun-10 02:00S 23°60' W 046°19'5 8.8
2018-Jun-10 01:28S 24°04' W 046°22'2 4.0
2018-Jun-10 01:00S 24°06' W 046°22'3 5.5
2018-Jun-10 00:30S 24°08' W 046°22'3 5.2
2018-Jun-10 00:00S 24°10' W 046°20'2 4.8
2018-Jun-09 23:30S 24°13' W 046°20'3 6.2
2018-Jun-09 23:00S 24°15' W 046°18'3 6.9
2018-Jun-09 22:30S 24°15' W 046°14'3 6.9
2018-Jun-09 22:00S 24°14' W 046°10'4 7.5
2018-Jun-09 21:30S 24°14' W 046°06'  
Track history (hours):
 
Tides and Currents Weather Stations Pressure Air Temp Water Temp Dewpoint Dewpoint Depression Visibility Wind Speed Wind Dir Waves Ship Positions

MSC Marina

Last reported at 2018-Jun-11 09:35 UTC. Time now 2018-Jun-20 02:10 UTC.
Position S 25°18' W 046°52'.
Warning: this ship's position is 8 days out of date.

Length 304 m; draft 8.5 m.

Type: Ship (hazmat cat B). MMSI: 354972000.

Date/timePositionNaut miles runAvg speedWind from/ knotsBaromVisibWave heightAir tempDewpointWater temp
2018-Jun-11 09:35S 25°18' W 046°52'112.4
2018-Jun-11 09:30S 25°17' W 046°51'1012.4
2018-Jun-11 08:43S 25°08' W 046°48'312.4
2018-Jun-11 08:30S 25°05' W 046°47'812.5
2018-Jun-11 07:51S 24°58' W 046°43'1512.4
2018-Jun-11 06:37S 24°43' W 046°38'112.5
2018-Jun-11 06:30S 24°42' W 046°37'612.4
2018-Jun-11 06:00S 24°36' W 046°35'612.5
2018-Jun-11 05:30S 24°30' W 046°32'612.5
2018-Jun-11 05:00S 24°24' W 046°30'612.6
2018-Jun-11 04:30S 24°19' W 046°28'612.5
2018-Jun-11 04:00S 24°13' W 046°25'612.5
2018-Jun-11 03:30S 24°07' W 046°23'612.5
2018-Jun-11 03:00S 24°01' W 046°20'4 0.2
2018-Jun-10 02:23S 23°58' W 046°18'2 5.9
2018-Jun-10 02:00S 23°60' W 046°19'5 8.8
2018-Jun-10 01:28S 24°04' W 046°22'2 4.0
2018-Jun-10 01:00S 24°06' W 046°22'3 5.5
2018-Jun-10 00:30S 24°08' W 046°22'3 5.2
2018-Jun-10 00:00S 24°10' W 046°20'2 4.8
2018-Jun-09 23:30S 24°13' W 046°20'3 6.2
2018-Jun-09 23:00S 24°15' W 046°18'3 6.9
2018-Jun-09 22:30S 24°15' W 046°14'3 6.9
2018-Jun-09 22:00S 24°14' W 046°10'4 7.5
2018-Jun-09 21:30S 24°14' W 046°06'  

Dump ship's entire track history